createdAt,value
2019-04-03T00:00:13.058Z,12.95
2019-04-03T00:02:41.463Z,12.37
2019-04-03T00:05:10.036Z,12.45
2019-04-03T00:07:38.471Z,13.88
2019-04-03T00:10:07.694Z,14.20
2019-04-03T00:12:36.574Z,12.80
2019-04-03T00:15:06.359Z,13.15
2019-04-03T00:17:34.781Z,13.20
2019-04-03T00:20:04.938Z,13.53
2019-04-03T00:22:33.375Z,14.18
2019-04-03T00:25:01.799Z,15.08
2019-04-03T00:27:30.222Z,11.53
2019-04-03T00:29:58.647Z,12.18
2019-04-03T00:32:27.056Z,12.88
2019-04-03T00:34:55.747Z,13.78
2019-04-03T00:37:24.166Z,13.83
2019-04-03T00:39:54.513Z,12.55
2019-04-03T00:42:24.567Z,12.63
2019-04-03T00:44:54.682Z,12.80
2019-04-03T00:47:25.074Z,14.10
2019-04-03T00:49:56.197Z,12.90
2019-04-03T00:52:23.690Z,11.63
2019-04-03T00:54:52.126Z,9.75
2019-04-03T00:57:20.579Z,12.63
2019-04-03T00:59:49.061Z,10.72
2019-04-03T01:02:17.556Z,10.35
2019-04-03T01:04:45.966Z,11.07
2019-04-03T01:07:14.361Z,10.98
2019-04-03T01:09:42.803Z,10.65
2019-04-03T01:12:23.300Z,9.70
2019-04-03T03:08:42.650Z,3.60
2019-04-03T03:11:12.304Z,4.33
2019-04-03T03:13:41.115Z,3.20
2019-04-03T03:16:10.001Z,4.05
2019-04-03T03:18:38.476Z,3.85
2019-04-03T03:21:12.027Z,2.45
2019-04-03T03:23:38.322Z,3.22
2019-04-03T03:26:07.375Z,2.58
2019-04-03T03:28:36.125Z,2.37
2019-04-03T03:31:07.286Z,2.20
2019-04-03T03:33:38.742Z,3.57
2019-04-03T03:36:05.826Z,2.77
2019-04-03T03:38:38.228Z,2.58
2019-04-03T03:41:05.563Z,3.40
2019-04-03T03:43:38.201Z,2.67
2019-04-03T03:46:05.442Z,2.67
2019-04-03T03:48:34.445Z,2.77
2019-04-03T03:51:04.454Z,2.67
2019-04-03T03:53:33.738Z,2.00
2019-04-03T03:56:02.500Z,3.70
2019-04-03T03:58:31.459Z,2.17
2019-04-03T04:01:01.011Z,3.33
2019-04-03T04:03:29.868Z,3.27
2019-04-03T04:05:58.268Z,2.87
2019-04-03T04:08:27.902Z,4.85
2019-04-03T04:10:59.451Z,3.72
2019-04-03T04:13:27.055Z,2.60
2019-04-03T04:15:56.522Z,5.60
2019-04-03T04:18:25.137Z,4.85
2019-04-03T04:20:53.686Z,2.20
2019-04-03T04:23:24.760Z,6.10
2019-04-03T04:25:53.579Z,4.10
2019-04-03T04:28:22.757Z,4.03
2019-04-03T04:30:51.875Z,2.15
2019-04-03T04:33:20.276Z,2.62
2019-04-03T04:35:51.901Z,3.37
2019-04-03T04:38:18.891Z,2.45
2019-04-03T04:40:47.329Z,3.33
2019-04-03T04:43:15.737Z,3.17
2019-04-03T04:45:44.341Z,2.25
2019-04-03T04:48:15.594Z,2.83
2019-04-03T04:50:42.999Z,3.02
2019-04-03T04:53:11.476Z,2.35
2019-04-03T04:55:39.950Z,3.70
2019-04-03T04:58:11.546Z,2.83
2019-04-03T05:00:39.726Z,4.00
2019-04-03T05:03:08.156Z,2.92
2019-04-03T05:05:36.651Z,2.52
2019-04-03T05:08:05.275Z,2.53
2019-04-03T05:10:36.424Z,3.15
2019-04-03T05:13:04.025Z,4.13
2019-04-03T05:15:32.421Z,2.45
2019-04-03T05:18:00.908Z,3.22
2019-04-03T05:20:29.665Z,2.58
2019-04-03T05:22:58.143Z,3.30
2019-04-03T05:25:27.894Z,3.67
2019-04-03T05:27:56.688Z,3.07
2019-04-03T05:30:32.860Z,3.60
2019-04-03T05:33:01.245Z,3.62
2019-04-03T05:35:29.972Z,2.90
2019-04-03T05:37:58.563Z,3.35
2019-04-03T05:40:27.083Z,3.37
2019-04-03T05:42:55.567Z,4.28
2019-04-03T05:45:23.955Z,3.08
2019-04-03T05:47:52.384Z,3.20
2019-04-03T05:50:20.778Z,4.22
2019-04-03T05:52:49.416Z,5.47
2019-04-03T05:55:17.852Z,3.77
2019-04-03T05:57:46.295Z,4.30
2019-04-03T06:00:15.045Z,3.87
2019-04-03T06:02:43.508Z,3.77
2019-04-03T06:05:13.492Z,4.40
2019-04-03T06:07:42.028Z,5.40
2019-04-03T06:10:10.729Z,5.60
2019-04-03T06:12:59.698Z,3.60
2019-04-03T06:15:28.358Z,4.22
2019-04-03T06:17:56.826Z,3.55
2019-04-03T06:20:25.282Z,4.97
2019-04-03T06:23:13.187Z,5.17
2019-04-03T06:25:41.637Z,5.00
2019-04-03T06:28:12.689Z,5.95
2019-04-03T06:30:40.522Z,5.30
2019-04-03T06:33:08.930Z,4.78
2019-04-03T06:35:38.121Z,6.55
2019-04-03T06:38:06.551Z,5.83
2019-04-03T06:40:35.540Z,6.60
2019-04-03T06:43:04.866Z,7.33
2019-04-03T06:45:33.295Z,7.42
2019-04-03T06:48:04.239Z,5.47
2019-04-03T06:50:32.170Z,8.00
2019-04-03T06:53:00.623Z,6.03
2019-04-03T06:55:29.071Z,5.35
2019-04-03T06:57:57.802Z,5.97
2019-04-03T07:00:26.216Z,6.80
2019-04-03T07:02:54.642Z,7.15
2019-04-03T07:05:23.113Z,6.97
2019-04-03T07:07:51.539Z,8.07
2019-04-03T07:10:25.800Z,10.08
2019-04-03T07:12:50.089Z,7.95
2019-04-03T07:15:18.747Z,8.33
2019-04-03T07:17:47.728Z,7.67
2019-04-03T07:20:19.729Z,9.95
2019-04-03T07:22:46.909Z,10.20
2019-04-03T07:25:15.709Z,8.68
2019-04-03T07:27:44.110Z,8.50
2019-04-03T07:30:16.806Z,8.38
2019-04-03T07:32:44.843Z,9.23
2019-04-03T07:35:13.384Z,9.55
2019-04-03T07:37:41.811Z,8.83
2019-04-03T07:40:10.648Z,9.90
2019-04-03T07:42:39.069Z,8.58
2019-04-03T07:45:09.005Z,8.88
2019-04-03T07:47:37.737Z,11.28
2019-04-03T07:50:10.311Z,10.98
2019-04-03T07:52:37.632Z,9.63
2019-04-03T07:55:06.777Z,8.80
2019-04-03T07:57:36.675Z,10.35
2019-04-03T08:00:08.869Z,11.15
2019-04-03T08:02:37.683Z,12.28
2019-04-03T08:05:08.241Z,10.88
2019-04-03T08:07:37.298Z,10.33
2019-04-03T08:10:06.803Z,12.50
2019-04-03T08:12:35.920Z,11.30
2019-04-03T08:15:07.634Z,12.90
2019-04-03T08:17:36.043Z,13.38
2019-04-03T08:20:06.604Z,13.43
2019-04-03T08:22:35.775Z,11.73
2019-04-03T08:25:06.742Z,13.22
2019-04-03T08:27:35.249Z,11.60
2019-04-03T08:30:07.327Z,11.97
2019-04-03T08:32:35.733Z,13.32
2019-04-03T08:35:19.315Z,11.33
2019-04-03T08:37:40.661Z,12.00
2019-04-03T08:40:08.497Z,11.43
2019-04-03T08:42:37.723Z,12.28
2019-04-03T08:45:08.865Z,12.28
2019-04-03T08:47:37.727Z,11.73
2019-04-03T08:50:10.476Z,12.70
2019-04-03T08:52:39.237Z,12.58
2019-04-03T08:55:08.482Z,11.73
2019-04-03T08:57:37.165Z,12.33
2019-04-03T09:00:07.531Z,13.70
2019-04-03T09:02:36.134Z,15.00
2019-04-03T09:05:07.087Z,13.00
2019-04-03T09:07:35.958Z,13.20
2019-04-03T09:10:07.051Z,13.05
2019-04-03T09:12:37.497Z,13.08
2019-04-03T09:15:08.294Z,14.20
2019-04-03T09:17:36.955Z,12.05
2019-04-03T09:20:06.005Z,11.97
2019-04-03T09:22:34.425Z,12.03
2019-04-03T09:25:03.104Z,11.53
2019-04-03T09:27:31.576Z,13.25
2019-04-03T09:30:00.642Z,11.85
2019-04-03T09:32:29.053Z,11.40
2019-04-03T09:34:59.091Z,7.77
2019-04-03T09:37:27.951Z,9.97
2019-04-03T09:39:56.374Z,8.00
2019-04-03T09:42:24.836Z,9.50
2019-04-03T09:44:53.714Z,7.60
2019-04-03T09:47:25.027Z,6.50
2019-04-03T09:49:53.576Z,6.72
2019-04-03T09:52:23.552Z,6.62
2019-04-03T09:54:52.853Z,5.63
2019-04-03T09:57:21.682Z,7.17
2019-04-03T09:59:50.122Z,6.72
2019-04-03T10:02:19.632Z,5.80
2019-04-03T10:04:49.201Z,4.77
2019-04-03T10:07:38.618Z,5.10
2019-04-03T10:10:08.463Z,6.05
2019-04-03T10:12:36.926Z,5.80
2019-04-03T10:15:08.822Z,5.12
2019-04-03T10:17:38.520Z,5.37
2019-04-03T10:20:09.059Z,5.50
2019-04-03T10:22:37.798Z,6.22
2019-04-03T10:25:08.781Z,4.45
2019-04-03T10:27:37.221Z,4.95
2019-04-03T10:30:11.416Z,4.47
2019-04-03T10:32:39.854Z,4.78
2019-04-03T10:35:09.201Z,5.83
2019-04-03T10:37:38.021Z,5.42
2019-04-03T10:40:10.224Z,5.47
2019-04-03T10:42:38.714Z,4.83
2019-04-03T10:45:09.218Z,5.25
2019-04-03T10:47:42.056Z,5.83
2019-04-03T10:50:08.629Z,5.78
2019-04-03T10:52:37.059Z,6.75
2019-04-03T10:55:07.033Z,5.35
2019-04-03T10:57:35.794Z,9.35
2019-04-03T11:00:10.612Z,5.33
2019-04-03T11:02:39.126Z,5.17
2019-04-03T11:05:08.979Z,3.77
2019-04-03T11:07:37.467Z,3.40
2019-04-03T11:10:08.141Z,3.70
2019-04-03T11:12:36.575Z,3.10
2019-04-03T11:15:11.531Z,3.70
2019-04-03T11:17:39.001Z,3.42
2019-04-03T11:20:09.693Z,4.37
2019-04-03T11:22:41.674Z,2.98
2019-04-03T11:25:14.003Z,3.17
2019-04-03T11:27:44.055Z,3.20
2019-04-03T11:30:17.023Z,3.10
2019-04-03T11:32:44.000Z,5.30
2019-04-03T11:35:14.292Z,5.40
2019-04-03T11:37:42.793Z,3.53
2019-04-03T11:40:12.830Z,3.00
2019-04-03T11:42:41.337Z,3.20
2019-04-03T11:45:11.836Z,4.20
2019-04-03T11:47:40.630Z,3.25
2019-04-03T11:50:10.128Z,3.40
2019-04-03T11:52:38.989Z,4.83
2019-04-03T11:55:10.088Z,3.83
2019-04-03T11:57:37.999Z,3.42
2019-04-03T12:00:13.350Z,3.67
2019-04-03T12:02:44.467Z,3.15
2019-04-03T12:05:20.196Z,4.80
2019-04-03T12:07:47.082Z,4.55
2019-04-03T12:10:16.002Z,3.98
2019-04-03T12:12:44.769Z,4.37
2019-04-03T12:15:16.273Z,4.55
2019-04-03T12:17:44.279Z,5.73
2019-04-03T12:20:15.408Z,4.42
2019-04-03T12:22:44.316Z,4.70
2019-04-03T12:25:14.122Z,4.97
2019-04-03T12:27:44.998Z,4.23
2019-04-03T12:30:13.178Z,4.87
2019-04-03T12:32:47.320Z,3.37
2019-04-03T12:35:13.235Z,3.70
2019-04-03T12:37:41.984Z,4.30
2019-04-03T12:40:11.535Z,4.87
2019-04-03T12:42:40.181Z,5.40
2019-04-03T12:45:09.040Z,3.90
2019-04-03T12:47:38.182Z,4.42
2019-04-03T12:50:08.542Z,4.43
2019-04-03T12:52:37.128Z,4.58
2019-04-03T12:55:07.751Z,5.45
2019-04-03T12:57:38.964Z,5.60
2019-04-03T13:00:12.546Z,4.97
2019-04-03T13:02:41.314Z,6.50
2019-04-03T13:05:10.494Z,4.62
2019-04-03T13:07:39.462Z,6.15
2019-04-03T13:10:09.191Z,5.87
2019-04-03T13:12:38.023Z,3.70
2019-04-03T13:15:09.794Z,5.25
2019-04-03T13:17:38.350Z,4.53
2019-04-03T13:20:08.575Z,4.87
2019-04-03T13:22:37.060Z,4.97
2019-04-03T13:25:06.923Z,5.10
2019-04-03T13:27:35.407Z,3.77
2019-04-03T13:30:06.336Z,4.17
2019-04-03T13:32:34.977Z,4.43
2019-04-03T13:35:05.886Z,4.28
2019-04-03T13:37:35.134Z,4.72
2019-04-03T13:40:07.035Z,4.97
2019-04-03T13:42:35.880Z,5.40
2019-04-03T13:45:09.743Z,4.37
2019-04-03T13:47:42.045Z,4.93
2019-04-03T13:50:10.821Z,4.27
2019-04-03T13:52:43.271Z,3.40
2019-04-03T13:55:09.817Z,4.22
2019-04-03T13:57:38.615Z,4.20
2019-04-03T14:00:18.330Z,4.77
2019-04-03T14:02:39.670Z,4.60
2019-04-03T14:05:09.688Z,5.72
2019-04-03T14:07:41.551Z,4.17
2019-04-03T14:10:10.978Z,6.97
2019-04-03T14:12:43.571Z,4.67
2019-04-03T14:15:09.858Z,4.53
2019-04-03T14:17:38.496Z,7.53
2019-04-03T14:20:08.686Z,5.30
2019-04-03T14:22:37.387Z,4.87
2019-04-03T14:25:17.873Z,5.67
2019-04-03T14:27:37.488Z,4.75
2019-04-03T14:30:11.142Z,4.00
2019-04-03T14:32:39.449Z,3.83
2019-04-03T14:35:40.453Z,4.37
2019-04-03T14:37:39.790Z,5.05
2019-04-03T14:40:11.131Z,4.60
2019-04-03T14:42:38.998Z,4.47
2019-04-03T14:45:09.231Z,5.75
2019-04-03T14:47:37.646Z,3.02
2019-04-03T14:50:07.361Z,4.10
2019-04-03T14:52:36.366Z,4.00
2019-04-03T14:55:17.204Z,3.10
2019-04-03T14:57:37.215Z,3.92
2019-04-03T15:00:23.458Z,3.30
2019-04-03T15:02:40.216Z,3.37
2019-04-03T15:05:09.446Z,5.27
2019-04-03T15:07:37.861Z,4.60
2019-04-03T15:10:07.772Z,4.00
2019-04-03T15:12:38.805Z,4.95
2019-04-03T15:15:06.987Z,3.92
2019-04-03T15:17:37.210Z,5.00
2019-04-03T15:20:09.747Z,4.72
2019-04-03T15:22:39.434Z,4.90
2019-04-03T15:25:08.877Z,5.80
2019-04-03T15:27:37.417Z,6.12
2019-04-03T15:30:10.965Z,5.05
2019-04-03T15:32:40.157Z,5.83
2019-04-03T15:35:09.140Z,3.58
2019-04-03T15:37:40.081Z,4.97
2019-04-03T15:40:09.208Z,3.30
2019-04-03T15:42:39.788Z,4.90
2019-04-03T15:45:10.233Z,5.87
2019-04-03T15:47:44.117Z,4.87
2019-04-03T15:50:09.751Z,5.22
2019-04-03T15:52:38.728Z,3.45
2019-04-03T15:55:08.442Z,3.67
2019-04-03T15:57:39.755Z,3.83
2019-04-03T16:00:10.197Z,6.55
2019-04-03T16:02:39.196Z,4.28
2019-04-03T16:05:07.775Z,3.25
2019-04-03T16:07:40.445Z,3.20
2019-04-03T16:10:09.354Z,3.03
2019-04-03T16:12:41.553Z,4.70
2019-04-03T16:15:09.604Z,3.65
2019-04-03T16:17:39.121Z,2.97
2019-04-03T16:20:09.176Z,5.03
2019-04-03T16:22:38.082Z,2.57
2019-04-03T16:25:08.036Z,2.80
2019-04-03T16:27:36.608Z,4.28
2019-04-03T16:30:08.366Z,2.80
2019-04-03T16:32:36.748Z,2.98
2019-04-03T16:35:08.865Z,3.00
2019-04-03T16:37:37.484Z,2.85
2019-04-03T16:40:10.053Z,2.72
2019-04-03T16:42:38.625Z,2.80
2019-04-03T16:45:28.448Z,2.50
2019-04-03T16:47:56.893Z,2.85
2019-04-03T16:50:27.288Z,2.90
2019-04-03T16:52:55.674Z,2.90
2019-04-03T16:55:24.462Z,3.58
2019-04-03T16:57:54.318Z,3.95
2019-04-03T17:00:23.376Z,4.37
2019-04-03T17:02:51.951Z,3.25
2019-04-03T17:05:20.885Z,3.85
2019-04-03T17:07:51.191Z,4.00
2019-04-03T17:10:19.544Z,2.45
2019-04-03T17:12:50.079Z,3.55
2019-04-03T17:15:18.964Z,3.20
2019-04-03T17:17:47.921Z,4.22
2019-04-03T17:20:16.406Z,2.22
2019-04-03T17:22:46.755Z,2.90
2019-04-03T17:25:15.478Z,2.50
2019-04-03T17:27:54.398Z,2.90
2019-04-03T17:30:16.269Z,3.95
2019-04-03T17:32:44.687Z,4.00
2019-04-03T17:35:14.114Z,5.30
2019-04-03T17:37:43.525Z,5.97
2019-04-03T17:40:13.164Z,7.70
2019-04-03T17:42:41.609Z,5.83
2019-04-03T17:45:10.226Z,7.35
2019-04-03T17:47:38.644Z,8.40
2019-04-03T17:50:08.013Z,10.65
2019-04-03T17:52:37.064Z,5.20
2019-04-03T17:55:10.103Z,5.40
2019-04-03T17:57:39.128Z,4.53
2019-04-03T18:00:13.456Z,4.83
2019-04-03T18:02:41.910Z,5.42
2019-04-03T18:05:10.832Z,4.17
2019-04-03T18:07:39.249Z,5.30
2019-04-03T18:10:12.431Z,5.65
2019-04-03T18:12:39.045Z,6.87
2019-04-03T18:15:09.358Z,5.00
2019-04-03T18:17:37.867Z,5.35
2019-04-03T18:20:08.009Z,4.37
2019-04-03T18:22:36.435Z,4.90
2019-04-03T18:25:08.262Z,5.35
2019-04-03T18:27:37.041Z,6.17
2019-04-03T18:30:11.899Z,5.78
2019-04-03T18:32:39.818Z,5.70
2019-04-03T18:35:09.066Z,5.90
2019-04-03T18:37:40.485Z,3.60
2019-04-03T18:40:09.471Z,3.60
2019-04-03T18:42:37.897Z,6.62
2019-04-03T18:45:07.001Z,4.55
2019-04-03T18:47:41.232Z,5.12
2019-04-03T18:50:09.742Z,4.80
2019-04-03T18:52:38.856Z,5.65
2019-04-03T18:55:07.681Z,5.27
2019-04-03T18:57:41.720Z,6.55
2019-04-03T19:00:10.695Z,7.30
2019-04-03T19:02:39.108Z,6.15
2019-04-03T19:05:13.731Z,9.83
2019-04-03T19:07:40.691Z,6.60
2019-04-03T19:10:10.481Z,7.17
2019-04-03T19:12:38.895Z,7.22
2019-04-03T19:15:08.076Z,8.13
2019-04-03T19:17:36.542Z,8.13
2019-04-03T19:20:10.706Z,6.62
2019-04-03T19:22:40.065Z,7.27
2019-04-03T19:25:08.842Z,7.75
2019-04-03T19:27:37.230Z,8.13
2019-04-03T19:30:07.630Z,8.25
2019-04-03T19:32:39.291Z,9.90
2019-04-03T19:37:37.932Z,10.55
2019-04-03T19:40:09.731Z,8.80
2019-04-03T19:45:07.748Z,10.43
2019-04-03T19:47:36.173Z,12.00
2019-04-03T19:50:07.689Z,11.57
2019-04-03T19:52:37.438Z,9.70
2019-04-03T19:55:07.446Z,11.53
2019-04-03T19:57:36.137Z,13.05
2019-04-03T20:00:07.268Z,11.83
2019-04-03T20:02:38.079Z,12.23
2019-04-03T20:05:06.675Z,13.10
2019-04-03T20:07:35.125Z,12.37
2019-04-03T20:10:04.927Z,10.20
2019-04-03T20:12:33.342Z,10.35
2019-04-03T20:15:02.350Z,11.43
2019-04-03T20:17:31.082Z,12.65
2019-04-03T20:19:59.486Z,10.20
2019-04-03T20:22:27.902Z,11.40
2019-04-03T20:25:00.049Z,10.10
2019-04-03T20:27:26.555Z,12.23
2019-04-03T20:29:54.983Z,11.65
2019-04-03T20:32:23.410Z,10.93
2019-04-03T20:34:52.157Z,13.90
2019-04-03T20:37:20.625Z,11.18
2019-04-03T20:39:49.034Z,10.93
2019-04-03T20:42:17.625Z,10.90
2019-04-03T20:44:48.132Z,11.87
2019-04-03T20:47:16.246Z,12.37
2019-04-03T20:49:45.350Z,12.48
2019-04-03T20:52:13.756Z,12.25
2019-04-03T20:54:42.179Z,11.37
2019-04-03T20:57:13.375Z,10.90
2019-04-03T20:59:42.718Z,10.45
2019-04-03T21:02:10.989Z,8.48
2019-04-03T21:04:39.447Z,11.30
2019-04-03T21:07:07.851Z,11.12
2019-04-03T21:09:36.263Z,10.10
2019-04-03T21:12:05.100Z,9.50
2019-04-03T21:14:34.117Z,10.03
2019-04-03T21:17:02.618Z,10.43
2019-04-03T21:19:31.025Z,10.65
2019-04-03T21:22:00.351Z,9.57
2019-04-03T21:24:29.008Z,8.23
2019-04-03T21:26:57.409Z,9.03
2019-04-03T21:29:25.819Z,10.43
2019-04-03T21:31:56.425Z,10.28
2019-04-03T21:34:24.401Z,11.03
2019-04-03T21:36:52.895Z,9.93
2019-04-03T21:39:21.390Z,11.33
2019-04-03T21:41:49.793Z,11.78
2019-04-03T21:44:18.232Z,12.03
2019-04-03T21:46:46.637Z,11.93
2019-04-03T21:49:16.795Z,13.22
2019-04-03T21:51:45.696Z,14.23
2019-04-03T21:54:14.105Z,11.88
2019-04-03T21:56:42.505Z,11.33
2019-04-03T21:59:11.424Z,12.80
2019-04-03T22:01:40.232Z,13.03
2019-04-03T22:04:08.660Z,12.13
2019-04-03T22:06:37.117Z,13.03
2019-04-03T22:09:08.677Z,14.47
2019-04-03T22:11:37.149Z,12.73
2019-04-03T22:14:05.925Z,13.08
2019-04-03T22:16:34.724Z,12.95
2019-04-03T22:19:03.286Z,11.28
2019-04-03T22:21:32.501Z,13.48
2019-04-03T22:24:01.381Z,12.80
2019-04-03T22:26:29.780Z,12.33
2019-04-03T22:28:58.232Z,12.65
2019-04-03T22:31:27.084Z,14.05
2019-04-03T22:33:58.900Z,12.10
2019-04-03T22:36:27.949Z,10.63
2019-04-03T22:38:56.417Z,13.93
2019-04-03T22:41:24.799Z,12.30
2019-04-03T22:43:54.135Z,11.35
2019-04-03T22:46:22.655Z,13.25
2019-04-03T22:48:51.087Z,13.75
2019-04-03T22:51:19.513Z,15.08
2019-04-03T22:53:47.912Z,14.05
2019-04-03T22:56:16.864Z,13.83
2019-04-03T22:58:45.910Z,14.10
2019-04-03T23:01:14.497Z,13.83
2019-04-03T23:03:42.895Z,13.87
2019-04-03T23:06:11.349Z,11.63
2019-04-03T23:08:39.819Z,13.20
2019-04-03T23:11:08.285Z,13.18
2019-04-03T23:13:36.923Z,13.62
2019-04-03T23:16:05.354Z,15.15
2019-04-03T23:18:33.763Z,14.68
2019-04-03T23:21:02.466Z,13.72
2019-04-03T23:23:30.868Z,12.63
2019-04-03T23:26:00.842Z,11.97
2019-04-03T23:28:29.425Z,13.72
2019-04-03T23:30:57.853Z,13.32
2019-04-03T23:33:26.248Z,11.90
2019-04-03T23:35:54.928Z,12.63
2019-04-03T23:38:24.802Z,12.75
2019-04-03T23:40:53.513Z,11.03
2019-04-03T23:43:21.930Z,11.68
2019-04-03T23:45:50.397Z,12.47
2019-04-03T23:48:18.826Z,12.15
2019-04-03T23:50:47.235Z,11.10
2019-04-03T23:53:15.640Z,10.80
2019-04-03T23:55:44.058Z,10.78
2019-04-03T23:58:12.460Z,11.18
